sensor_id;sensor_type;location;lat;lon;timestamp;pressure;altitude;pressure_sealevel;temperature;humidity
74524;BME280;63074;44.696;10.358;2022-11-20T00:00:12;99340.84;;;9.51;100.00
74524;BME280;63074;44.696;10.358;2022-11-20T00:02:38;99339.88;;;9.40;100.00
74524;BME280;63074;44.696;10.358;2022-11-20T00:05:05;99348.66;;;9.35;100.00
74524;BME280;63074;44.696;10.358;2022-11-20T00:07:31;99337.75;;;9.42;100.00
74524;BME280;63074;44.696;10.358;2022-11-20T00:09:57;99345.06;;;9.30;100.00
74524;BME280;63074;44.696;10.358;2022-11-20T02:29:03;99389.84;;;8.56;100.00
74524;BME280;63074;44.696;10.358;2022-11-20T02:31:33;99386.47;;;8.60;100.00
74524;BME280;63074;44.696;10.358;2022-11-20T02:34:00;99387.28;;;8.61;100.00
74524;BME280;63074;44.696;10.358;2022-11-20T02:36:27;99389.38;;;8.59;100.00
74524;BME280;63074;44.696;10.358;2022-11-20T02:38:54;99392.75;;;8.66;100.00
74524;BME280;63074;44.696;10.358;2022-11-20T02:41:20;99394.84;;;8.64;100.00
74524;BME280;63074;44.696;10.358;2022-11-20T02:43:48;99383.91;;;8.54;100.00
74524;BME280;63074;44.696;10.358;2022-11-20T02:46:14;99387.50;;;8.59;100.00
74524;BME280;63074;44.696;10.358;2022-11-20T02:48:40;99397.19;;;8.49;100.00
74524;BME280;63074;44.696;10.358;2022-11-20T02:51:06;99396.63;;;8.46;100.00
74524;BME280;63074;44.696;10.358;2022-11-20T02:53:32;99391.56;;;8.33;100.00
74524;BME280;63074;44.696;10.358;2022-11-20T02:55:58;99387.13;;;8.16;100.00
74524;BME280;63074;44.696;10.358;2022-11-20T02:58:24;99390.19;;;8.07;100.00
74524;BME280;63074;44.696;10.358;2022-11-20T03:00:51;99391.94;;;8.02;100.00
74524;BME280;63074;44.696;10.358;2022-11-20T03:03:18;99399.38;;;8.00;100.00
74524;BME280;63074;44.696;10.358;2022-11-20T03:05:44;99391.09;;;7.90;100.00
74524;BME280;63074;44.696;10.358;2022-11-20T03:08:10;99393.78;;;7.90;100.00
74524;BME280;63074;44.696;10.358;2022-11-20T03:10:36;99395.19;;;7.92;100.00
74524;BME280;63074;44.696;10.358;2022-11-20T03:13:02;99394.97;;;7.70;100.00
74524;BME280;63074;44.696;10.358;2022-11-20T03:15:29;99401.34;;;7.69;100.00
74524;BME280;63074;44.696;10.358;2022-11-20T03:17:55;99400.31;;;7.70;100.00
74524;BME280;63074;44.696;10.358;2022-11-20T03:20:22;99408.09;;;7.84;100.00
74524;BME280;63074;44.696;10.358;2022-11-20T03:22:48;99407.03;;;7.96;100.00
74524;BME280;63074;44.696;10.358;2022-11-20T03:25:15;99409.59;;;8.03;100.00
74524;BME280;63074;44.696;10.358;2022-11-20T03:27:41;99401.59;;;7.79;100.00
74524;BME280;63074;44.696;10.358;2022-11-20T03:30:07;99402.16;;;8.05;100.00
74524;BME280;63074;44.696;10.358;2022-11-20T03:32:34;99406.81;;;7.98;100.00
74524;BME280;63074;44.696;10.358;2022-11-20T03:35:00;99405.75;;;7.99;100.00
74524;BME280;63074;44.696;10.358;2022-11-20T03:37:26;99411.47;;;7.91;100.00
74524;BME280;63074;44.696;10.358;2022-11-20T03:39:52;99409.72;;;7.73;100.00
74524;BME280;63074;44.696;10.358;2022-11-20T03:42:18;99409.97;;;7.95;100.00
74524;BME280;63074;44.696;10.358;2022-11-20T03:45:03;99407.28;;;7.83;100.00
74524;BME280;63074;44.696;10.358;2022-11-20T03:47:30;99400.44;;;7.75;100.00
74524;BME280;63074;44.696;10.358;2022-11-20T03:49:56;99402.50;;;7.85;100.00
74524;BME280;63074;44.696;10.358;2022-11-20T03:52:22;99411.81;;;7.83;100.00
74524;BME280;63074;44.696;10.358;2022-11-20T03:54:48;99407.50;;;7.82;100.00
74524;BME280;63074;44.696;10.358;2022-11-20T03:57:14;99408.47;;;7.75;100.00
74524;BME280;63074;44.696;10.358;2022-11-20T03:59:40;99407.28;;;7.95;100.00
74524;BME280;63074;44.696;10.358;2022-11-20T04:02:07;99412.03;;;7.81;100.00
74524;BME280;63074;44.696;10.358;2022-11-20T04:04:33;99411.72;;;7.77;100.00
74524;BME280;63074;44.696;10.358;2022-11-20T04:06:59;99418.22;;;7.70;100.00
74524;BME280;63074;44.696;10.358;2022-11-20T04:09:25;99418.06;;;7.53;100.00
74524;BME280;63074;44.696;10.358;2022-11-20T04:11:51;99428.22;;;7.74;100.00
74524;BME280;63074;44.696;10.358;2022-11-20T04:14:17;99429.94;;;7.80;100.00
74524;BME280;63074;44.696;10.358;2022-11-20T04:16:43;99431.47;;;7.76;100.00
74524;BME280;63074;44.696;10.358;2022-11-20T04:19:12;99418.31;;;7.63;100.00
74524;BME280;63074;44.696;10.358;2022-11-20T04:21:38;99430.78;;;7.69;100.00
74524;BME280;63074;44.696;10.358;2022-11-20T04:24:05;99425.44;;;7.69;100.00
74524;BME280;63074;44.696;10.358;2022-11-20T04:26:32;99428.22;;;7.74;100.00
74524;BME280;63074;44.696;10.358;2022-11-20T04:28:58;99428.31;;;7.68;100.00
74524;BME280;63074;44.696;10.358;2022-11-20T04:31:26;99425.84;;;7.55;100.00
74524;BME280;63074;44.696;10.358;2022-11-20T04:33:54;99428.44;;;7.61;100.00
74524;BME280;63074;44.696;10.358;2022-11-20T04:36:22;99435.88;;;7.59;100.00
74524;BME280;63074;44.696;10.358;2022-11-20T04:38:56;99429.81;;;7.40;100.00
74524;BME280;63074;44.696;10.358;2022-11-20T04:41:25;99420.47;;;7.31;100.00
74524;BME280;63074;44.696;10.358;2022-11-20T04:43:53;99424.56;;;7.34;100.00
74524;BME280;63074;44.696;10.358;2022-11-20T04:46:25;99419.31;;;7.27;100.00
74524;BME280;63074;44.696;10.358;2022-11-20T04:48:52;99431.75;;;7.22;100.00
74524;BME280;63074;44.696;10.358;2022-11-20T04:51:18;99428.63;;;7.36;100.00
74524;BME280;63074;44.696;10.358;2022-11-20T04:53:44;99425.19;;;7.06;100.00
74524;BME280;63074;44.696;10.358;2022-11-20T04:56:12;99429.31;;;6.90;100.00
74524;BME280;63074;44.696;10.358;2022-11-20T04:58:40;99428.16;;;6.98;100.00
74524;BME280;63074;44.696;10.358;2022-11-20T05:01:14;99436.63;;;6.95;100.00
74524;BME280;63074;44.696;10.358;2022-11-20T05:03:42;99441.44;;;7.04;100.00
74524;BME280;63074;44.696;10.358;2022-11-20T05:06:09;99438.16;;;6.91;100.00
74524;BME280;63074;44.696;10.358;2022-11-20T05:08:36;99443.28;;;6.74;100.00
74524;BME280;63074;44.696;10.358;2022-11-20T05:11:12;99440.75;;;6.79;100.00
74524;BME280;63074;44.696;10.358;2022-11-20T05:13:39;99442.03;;;6.76;100.00
74524;BME280;63074;44.696;10.358;2022-11-20T05:16:08;99447.06;;;6.85;100.00
74524;BME280;63074;44.696;10.358;2022-11-20T05:18:35;99441.84;;;6.60;100.00
74524;BME280;63074;44.696;10.358;2022-11-20T05:21:02;99444.69;;;6.76;100.00
74524;BME280;63074;44.696;10.358;2022-11-20T05:23:32;99452.13;;;6.38;100.00
74524;BME280;63074;44.696;10.358;2022-11-20T05:25:59;99452.34;;;6.36;100.00
74524;BME280;63074;44.696;10.358;2022-11-20T05:28:26;99456.72;;;6.49;100.00
74524;BME280;63074;44.696;10.358;2022-11-20T05:30:53;99464.53;;;6.51;100.00
74524;BME280;63074;44.696;10.358;2022-11-20T05:33:20;99465.97;;;6.65;100.00
74524;BME280;63074;44.696;10.358;2022-11-20T05:35:47;99464.38;;;6.94;100.00
74524;BME280;63074;44.696;10.358;2022-11-20T05:38:14;99464.75;;;6.97;100.00
74524;BME280;63074;44.696;10.358;2022-11-20T05:40:40;99469.16;;;6.92;100.00
74524;BME280;63074;44.696;10.358;2022-11-20T05:43:07;99464.50;;;6.87;100.00
74524;BME280;63074;44.696;10.358;2022-11-20T05:45:33;99469.94;;;6.62;100.00
74524;BME280;63074;44.696;10.358;2022-11-20T05:48:00;99478.75;;;6.63;100.00
74524;BME280;63074;44.696;10.358;2022-11-20T05:50:27;99476.81;;;6.70;100.00
74524;BME280;63074;44.696;10.358;2022-11-20T05:52:54;99485.25;;;6.85;100.00
74524;BME280;63074;44.696;10.358;2022-11-20T05:55:20;99484.59;;;6.71;100.00
74524;BME280;63074;44.696;10.358;2022-11-20T05:57:46;99480.00;;;6.78;100.00
74524;BME280;63074;44.696;10.358;2022-11-20T06:00:12;99479.09;;;6.66;100.00
74524;BME280;63074;44.696;10.358;2022-11-20T06:02:39;99488.03;;;6.60;100.00
74524;BME280;63074;44.696;10.358;2022-11-20T06:05:05;99489.19;;;6.64;100.00
74524;BME280;63074;44.696;10.358;2022-11-20T06:07:31;99484.47;;;6.48;100.00
74524;BME280;63074;44.696;10.358;2022-11-20T06:09:57;99478.16;;;6.42;100.00
74524;BME280;63074;44.696;10.358;2022-11-20T06:12:24;99483.06;;;6.46;100.00
74524;BME280;63074;44.696;10.358;2022-11-20T06:14:50;99484.53;;;6.60;100.00
74524;BME280;63074;44.696;10.358;2022-11-20T06:17:16;99480.84;;;6.61;100.00
74524;BME280;63074;44.696;10.358;2022-11-20T06:19:42;99490.69;;;6.60;100.00
74524;BME280;63074;44.696;10.358;2022-11-20T06:22:08;99488.38;;;6.46;100.00
74524;BME280;63074;44.696;10.358;2022-11-20T06:24:34;99487.41;;;6.40;100.00
74524;BME280;63074;44.696;10.358;2022-11-20T06:27:00;99490.53;;;6.37;100.00
74524;BME280;63074;44.696;10.358;2022-11-20T06:29:26;99488.75;;;6.49;100.00
74524;BME280;63074;44.696;10.358;2022-11-20T06:31:53;99494.47;;;6.53;100.00
74524;BME280;63074;44.696;10.358;2022-11-20T06:34:19;99494.09;;;6.49;100.00
74524;BME280;63074;44.696;10.358;2022-11-20T06:36:45;99495.66;;;6.57;100.00
74524;BME280;63074;44.696;10.358;2022-11-20T06:39:11;99491.63;;;6.66;100.00
74524;BME280;63074;44.696;10.358;2022-11-20T06:41:37;99502.78;;;6.63;100.00
74524;BME280;63074;44.696;10.358;2022-11-20T06:44:04;99504.50;;;6.57;100.00
74524;BME280;63074;44.696;10.358;2022-11-20T06:46:31;99502.88;;;6.56;100.00
74524;BME280;63074;44.696;10.358;2022-11-20T06:48:58;99505.16;;;6.53;100.00
74524;BME280;63074;44.696;10.358;2022-11-20T06:51:24;99517.03;;;6.57;100.00
74524;BME280;63074;44.696;10.358;2022-11-20T06:53:50;99520.28;;;6.59;100.00
74524;BME280;63074;44.696;10.358;2022-11-20T06:56:16;99524.88;;;6.52;100.00
74524;BME280;63074;44.696;10.358;2022-11-20T06:58:42;99525.47;;;6.54;100.00
74524;BME280;63074;44.696;10.358;2022-11-20T07:01:13;99523.56;;;6.61;100.00
74524;BME280;63074;44.696;10.358;2022-11-20T07:03:40;99539.91;;;6.64;100.00
74524;BME280;63074;44.696;10.358;2022-11-20T07:06:08;99538.47;;;6.87;100.00
74524;BME280;63074;44.696;10.358;2022-11-20T07:08:35;99548.47;;;6.73;100.00
74524;BME280;63074;44.696;10.358;2022-11-20T07:11:03;99549.88;;;6.75;100.00
74524;BME280;63074;44.696;10.358;2022-11-20T07:13:31;99552.38;;;6.70;100.00
74524;BME280;63074;44.696;10.358;2022-11-20T07:16:02;99552.75;;;6.74;100.00
74524;BME280;63074;44.696;10.358;2022-11-20T07:18:29;99552.00;;;6.67;100.00
74524;BME280;63074;44.696;10.358;2022-11-20T07:20:55;99554.47;;;6.68;100.00
74524;BME280;63074;44.696;10.358;2022-11-20T07:23:21;99564.25;;;6.56;100.00
74524;BME280;63074;44.696;10.358;2022-11-20T07:25:47;99554.09;;;6.83;100.00
74524;BME280;63074;44.696;10.358;2022-11-20T07:28:14;99566.56;;;6.89;100.00
74524;BME280;63074;44.696;10.358;2022-11-20T07:30:40;99574.72;;;6.94;100.00
74524;BME280;63074;44.696;10.358;2022-11-20T07:33:06;99574.88;;;6.99;100.00
74524;BME280;63074;44.696;10.358;2022-11-20T07:35:32;99578.50;;;7.05;100.00
74524;BME280;63074;44.696;10.358;2022-11-20T07:37:58;99581.31;;;7.10;100.00
74524;BME280;63074;44.696;10.358;2022-11-20T07:40:25;99582.06;;;6.99;100.00
74524;BME280;63074;44.696;10.358;2022-11-20T07:42:53;99585.56;;;6.99;100.00
74524;BME280;63074;44.696;10.358;2022-11-20T07:45:20;99586.00;;;6.96;100.00
74524;BME280;63074;44.696;10.358;2022-11-20T07:47:47;99595.50;;;6.92;100.00
74524;BME280;63074;44.696;10.358;2022-11-20T07:50:14;99598.75;;;6.94;100.00
74524;BME280;63074;44.696;10.358;2022-11-20T07:52:41;99603.81;;;7.02;100.00
74524;BME280;63074;44.696;10.358;2022-11-20T07:55:08;99604.19;;;7.06;100.00
74524;BME280;63074;44.696;10.358;2022-11-20T07:57:35;99607.44;;;7.08;100.00
74524;BME280;63074;44.696;10.358;2022-11-20T08:00:02;99610.28;;;7.13;100.00
74524;BME280;63074;44.696;10.358;2022-11-20T08:02:28;99611.91;;;7.14;100.00
74524;BME280;63074;44.696;10.358;2022-11-20T08:04:54;99616.00;;;7.17;100.00
74524;BME280;63074;44.696;10.358;2022-11-20T08:07:38;99620.66;;;7.21;100.00
74524;BME280;63074;44.696;10.358;2022-11-20T08:10:05;99622.78;;;6.94;100.00
74524;BME280;63074;44.696;10.358;2022-11-20T08:12:31;99632.97;;;7.04;100.00
74524;BME280;63074;44.696;10.358;2022-11-20T08:15:16;99635.19;;;7.07;100.00
74524;BME280;63074;44.696;10.358;2022-11-20T08:17:42;99633.06;;;7.16;100.00
74524;BME280;63074;44.696;10.358;2022-11-20T08:20:09;99635.13;;;7.32;100.00
74524;BME280;63074;44.696;10.358;2022-11-20T09:05:50;99641.66;;;8.37;100.00
74524;BME280;63074;44.696;10.358;2022-11-20T09:08:16;99652.91;;;7.86;100.00
74524;BME280;63074;44.696;10.358;2022-11-20T09:10:46;99654.16;;;8.02;100.00
74524;BME280;63074;44.696;10.358;2022-11-20T09:13:16;99654.72;;;8.34;100.00
74524;BME280;63074;44.696;10.358;2022-11-20T09:15:42;99658.00;;;8.36;100.00
74524;BME280;63074;44.696;10.358;2022-11-20T09:18:08;99654.13;;;8.43;100.00
74524;BME280;63074;44.696;10.358;2022-11-20T09:20:35;99661.63;;;8.65;100.00
74524;BME280;63074;44.696;10.358;2022-11-20T09:23:01;99661.25;;;8.73;100.00
74524;BME280;63074;44.696;10.358;2022-11-20T09:25:27;99654.97;;;8.79;100.00
74524;BME280;63074;44.696;10.358;2022-11-20T09:27:58;99658.34;;;8.74;100.00
74524;BME280;63074;44.696;10.358;2022-11-20T09:30:27;99654.63;;;8.75;100.00
74524;BME280;63074;44.696;10.358;2022-11-20T09:32:53;99652.19;;;8.74;100.00
74524;BME280;63074;44.696;10.358;2022-11-20T09:35:19;99664.19;;;8.83;100.00
74524;BME280;63074;44.696;10.358;2022-11-20T09:37:46;99653.81;;;8.87;100.00
74524;BME280;63074;44.696;10.358;2022-11-20T09:40:20;99664.19;;;8.95;100.00
74524;BME280;63074;44.696;10.358;2022-11-20T09:53:33;99664.50;;;8.98;100.00
74524;BME280;63074;44.696;10.358;2022-11-20T09:56:10;99661.94;;;9.15;100.00
74524;BME280;63074;44.696;10.358;2022-11-20T09:58:50;99652.81;;;9.28;100.00
74524;BME280;63074;44.696;10.358;2022-11-20T10:01:33;99645.56;;;9.40;100.00
74524;BME280;63074;44.696;10.358;2022-11-20T10:04:19;99643.94;;;9.51;100.00
74524;BME280;63074;44.696;10.358;2022-11-20T10:07:11;99653.34;;;9.53;100.00
74524;BME280;63074;44.696;10.358;2022-11-20T10:09:43;99647.94;;;9.65;100.00
74524;BME280;63074;44.696;10.358;2022-11-20T10:18:18;99643.81;;;9.45;100.00
74524;BME280;63074;44.696;10.358;2022-11-20T10:20:56;99647.72;;;9.55;100.00
74524;BME280;63074;44.696;10.358;2022-11-20T10:26:31;99630.78;;;10.11;100.00
74524;BME280;63074;44.696;10.358;2022-11-20T10:29:46;99625.97;;;10.25;100.00
74524;BME280;63074;44.696;10.358;2022-11-20T10:32:20;99628.34;;;10.38;100.00
74524;BME280;63074;44.696;10.358;2022-11-20T10:34:51;99615.06;;;10.48;100.00
74524;BME280;63074;44.696;10.358;2022-11-20T10:37:25;99613.84;;;10.56;100.00
74524;BME280;63074;44.696;10.358;2022-11-20T10:42:44;99608.69;;;10.71;100.00
74524;BME280;63074;44.696;10.358;2022-11-20T10:47:55;99595.47;;;10.86;100.00
74524;BME280;63074;44.696;10.358;2022-11-20T10:50:23;99604.00;;;10.44;100.00
74524;BME280;63074;44.696;10.358;2022-11-20T10:53:17;99600.03;;;10.69;100.00
74524;BME280;63074;44.696;10.358;2022-11-20T10:55:52;99599.06;;;10.75;100.00
74524;BME280;63074;44.696;10.358;2022-11-20T11:01:05;99584.06;;;11.18;100.00
74524;BME280;63074;44.696;10.358;2022-11-20T11:03:32;99584.06;;;11.18;100.00
74524;BME280;63074;44.696;10.358;2022-11-20T11:06:17;99582.66;;;11.15;100.00
74524;BME280;63074;44.696;10.358;2022-11-20T11:08:48;99579.72;;;11.38;100.00
74524;BME280;63074;44.696;10.358;2022-11-20T11:11:44;99581.31;;;11.61;100.00
74524;BME280;63074;44.696;10.358;2022-11-20T11:14:19;99574.41;;;11.43;100.00
74524;BME280;63074;44.696;10.358;2022-11-20T11:17:19;99581.06;;;11.90;100.00
74524;BME280;63074;44.696;10.358;2022-11-20T11:20:27;99576.63;;;11.25;100.00
74524;BME280;63074;44.696;10.358;2022-11-20T11:22:57;99577.28;;;11.15;100.00
74524;BME280;63074;44.696;10.358;2022-11-20T11:25:38;99564.63;;;11.86;100.00
74524;BME280;63074;44.696;10.358;2022-11-20T11:28:25;99560.44;;;12.00;100.00
74524;BME280;63074;44.696;10.358;2022-11-20T11:30:56;99562.66;;;11.76;100.00
74524;BME280;63074;44.696;10.358;2022-11-20T11:33:26;99554.28;;;12.05;100.00
74524;BME280;63074;44.696;10.358;2022-11-20T11:36:01;99560.94;;;11.70;100.00
74524;BME280;63074;44.696;10.358;2022-11-20T11:38:36;99551.41;;;12.11;100.00
74524;BME280;63074;44.696;10.358;2022-11-20T11:41:04;99559.00;;;11.66;100.00
74524;BME280;63074;44.696;10.358;2022-11-20T11:43:35;99550.13;;;11.92;100.00
74524;BME280;63074;44.696;10.358;2022-11-20T11:54:53;99538.28;;;13.20;100.00
74524;BME280;63074;44.696;10.358;2022-11-20T12:00:14;99542.91;;;13.34;100.00
74524;BME280;63074;44.696;10.358;2022-11-20T12:05:42;99506.66;;;18.83;100.00
74524;BME280;63074;44.696;10.358;2022-11-20T12:08:26;99519.47;;;22.78;92.69
74524;BME280;63074;44.696;10.358;2022-11-20T12:11:10;99531.72;;;25.17;65.74
74524;BME280;63074;44.696;10.358;2022-11-20T12:13:44;99531.84;;;27.54;52.92
74524;BME280;63074;44.696;10.358;2022-11-20T12:16:16;99527.69;;;24.00;62.51
74524;BME280;63074;44.696;10.358;2022-11-20T12:18:43;99528.31;;;26.72;57.05
74524;BME280;63074;44.696;10.358;2022-11-20T12:53:40;99525.06;;;27.87;42.18
74524;BME280;63074;44.696;10.358;2022-11-20T12:59:18;99512.75;;;26.20;52.56
74524;BME280;63074;44.696;10.358;2022-11-20T13:07:22;99512.97;;;31.07;39.02
74524;BME280;63074;44.696;10.358;2022-11-20T13:09:54;99509.06;;;30.64;38.22
74524;BME280;63074;44.696;10.358;2022-11-20T13:12:31;99507.91;;;29.94;39.22
74524;BME280;63074;44.696;10.358;2022-11-20T13:18:03;99491.88;;;27.48;43.71
74524;BME280;63074;44.696;10.358;2022-11-20T13:20:31;99488.19;;;27.41;44.07
74524;BME280;63074;44.696;10.358;2022-11-20T13:22:59;99485.78;;;26.88;45.61
74524;BME280;63074;44.696;10.358;2022-11-20T13:25:33;99481.53;;;25.72;48.25
74524;BME280;63074;44.696;10.358;2022-11-20T13:30:52;99477.13;;;23.88;54.78
74524;BME280;63074;44.696;10.358;2022-11-20T13:38:52;99475.91;;;21.58;66.33
74524;BME280;63074;44.696;10.358;2022-11-20T13:41:36;99475.75;;;20.80;71.15
74524;BME280;63074;44.696;10.358;2022-11-20T13:44:44;99480.94;;;20.90;75.81
74524;BME280;63074;44.696;10.358;2022-11-20T13:47:29;99473.25;;;19.99;77.63
74524;BME280;63074;44.696;10.358;2022-11-20T13:49:58;99471.81;;;18.25;84.30
74524;BME280;63074;44.696;10.358;2022-11-20T13:52:39;99471.28;;;18.97;89.14
74524;BME280;63074;44.696;10.358;2022-11-20T13:55:32;99460.72;;;19.17;87.99
74524;BME280;63074;44.696;10.358;2022-11-20T14:01:17;99465.31;;;17.94;94.07
74524;BME280;63074;44.696;10.358;2022-11-20T14:03:47;99473.81;;;18.19;93.59
74524;BME280;63074;44.696;10.358;2022-11-20T14:06:30;99472.69;;;17.18;100.00
74524;BME280;63074;44.696;10.358;2022-11-20T14:08:58;99460.28;;;17.68;100.00
74524;BME280;63074;44.696;10.358;2022-11-20T14:11:26;99462.34;;;17.39;100.00
74524;BME280;63074;44.696;10.358;2022-11-20T14:13:59;99459.28;;;17.27;100.00
74524;BME280;63074;44.696;10.358;2022-11-20T14:16:27;99459.25;;;17.45;100.00
74524;BME280;63074;44.696;10.358;2022-11-20T14:19:16;99445.69;;;17.27;100.00
74524;BME280;63074;44.696;10.358;2022-11-20T14:21:43;99451.50;;;17.20;100.00
74524;BME280;63074;44.696;10.358;2022-11-20T14:24:14;99443.69;;;16.95;100.00
74524;BME280;63074;44.696;10.358;2022-11-20T14:26:47;99451.53;;;16.48;100.00
74524;BME280;63074;44.696;10.358;2022-11-20T14:29:28;99445.72;;;16.84;100.00
74524;BME280;63074;44.696;10.358;2022-11-20T14:31:58;99445.16;;;16.87;100.00
74524;BME280;63074;44.696;10.358;2022-11-20T14:34:30;99448.69;;;16.40;100.00
74524;BME280;63074;44.696;10.358;2022-11-20T14:37:05;99451.09;;;16.41;100.00
74524;BME280;63074;44.696;10.358;2022-11-20T14:39:37;99453.19;;;16.20;100.00
74524;BME280;63074;44.696;10.358;2022-11-20T14:42:13;99447.66;;;15.78;100.00
74524;BME280;63074;44.696;10.358;2022-11-20T14:44:41;99450.53;;;15.08;100.00
74524;BME280;63074;44.696;10.358;2022-11-20T14:47:12;99449.03;;;15.31;100.00
74524;BME280;63074;44.696;10.358;2022-11-20T14:49:39;99450.81;;;15.07;100.00
74524;BME280;63074;44.696;10.358;2022-11-20T14:52:18;99446.19;;;14.58;100.00
74524;BME280;63074;44.696;10.358;2022-11-20T14:54:52;99455.16;;;14.38;100.00
74524;BME280;63074;44.696;10.358;2022-11-20T14:57:23;99449.53;;;14.09;100.00
74524;BME280;63074;44.696;10.358;2022-11-20T15:02:53;99455.22;;;13.42;100.00
74524;BME280;63074;44.696;10.358;2022-11-20T15:05:46;99462.50;;;13.26;100.00
74524;BME280;63074;44.696;10.358;2022-11-20T15:08:17;99464.81;;;13.07;100.00
74524;BME280;63074;44.696;10.358;2022-11-20T15:10:52;99464.25;;;13.00;100.00
74524;BME280;63074;44.696;10.358;2022-11-20T15:13:39;99463.44;;;12.90;100.00
74524;BME280;63074;44.696;10.358;2022-11-20T15:16:18;99469.56;;;12.70;100.00
74524;BME280;63074;44.696;10.358;2022-11-20T15:18:45;99479.19;;;12.56;100.00
74524;BME280;63074;44.696;10.358;2022-11-20T15:21:17;99478.31;;;12.45;100.00
74524;BME280;63074;44.696;10.358;2022-11-20T15:23:44;99481.63;;;12.15;100.00
74524;BME280;63074;44.696;10.358;2022-11-20T15:26:23;99490.53;;;11.78;100.00
74524;BME280;63074;44.696;10.358;2022-11-20T15:28:53;99493.16;;;11.73;100.00
74524;BME280;63074;44.696;10.358;2022-11-20T15:31:23;99493.97;;;11.74;100.00
74524;BME280;63074;44.696;10.358;2022-11-20T15:33:53;99501.72;;;11.70;100.00
74524;BME280;63074;44.696;10.358;2022-11-20T15:36:21;99501.81;;;11.48;100.00
74524;BME280;63074;44.696;10.358;2022-11-20T15:38:48;99508.81;;;11.49;100.00
74524;BME280;63074;44.696;10.358;2022-11-20T15:41:40;99509.06;;;11.48;100.00
74524;BME280;63074;44.696;10.358;2022-11-20T15:44:15;99504.19;;;11.45;100.00
74524;BME280;63074;44.696;10.358;2022-11-20T15:46:42;99504.13;;;11.40;100.00
74524;BME280;63074;44.696;10.358;2022-11-20T15:49:16;99513.41;;;11.27;100.00
74524;BME280;63074;44.696;10.358;2022-11-20T15:52:00;99515.88;;;11.07;100.00
74524;BME280;63074;44.696;10.358;2022-11-20T15:54:29;99526.31;;;11.03;100.00
74524;BME280;63074;44.696;10.358;2022-11-20T15:56:58;99525.03;;;10.84;100.00
74524;BME280;63074;44.696;10.358;2022-11-20T15:59:26;99527.88;;;10.77;100.00
74524;BME280;63074;44.696;10.358;2022-11-20T16:01:52;99532.38;;;10.72;100.00
74524;BME280;63074;44.696;10.358;2022-11-20T16:04:21;99533.41;;;10.88;100.00
74524;BME280;63074;44.696;10.358;2022-11-20T16:06:47;99536.47;;;10.96;100.00
74524;BME280;63074;44.696;10.358;2022-11-20T16:09:16;99540.41;;;10.89;100.00
74524;BME280;63074;44.696;10.358;2022-11-20T16:11:43;99540.63;;;10.65;100.00
74524;BME280;63074;44.696;10.358;2022-11-20T16:14:12;99541.75;;;10.69;100.00
74524;BME280;63074;44.696;10.358;2022-11-20T16:17:00;99542.19;;;10.61;100.00
74524;BME280;63074;44.696;10.358;2022-11-20T16:19:30;99543.22;;;10.38;100.00
74524;BME280;63074;44.696;10.358;2022-11-20T16:21:57;99550.47;;;10.38;100.00
74524;BME280;63074;44.696;10.358;2022-11-20T16:24:29;99550.63;;;10.31;100.00
74524;BME280;63074;44.696;10.358;2022-11-20T16:26:59;99540.38;;;10.28;100.00
74524;BME280;63074;44.696;10.358;2022-11-20T16:29:25;99541.50;;;10.32;100.00
74524;BME280;63074;44.696;10.358;2022-11-20T16:31:54;99551.31;;;10.43;100.00
74524;BME280;63074;44.696;10.358;2022-11-20T16:34:25;99538.94;;;10.42;100.00
74524;BME280;63074;44.696;10.358;2022-11-20T16:36:54;99537.53;;;10.35;100.00
74524;BME280;63074;44.696;10.358;2022-11-20T16:39:22;99533.69;;;10.31;100.00
74524;BME280;63074;44.696;10.358;2022-11-20T16:41:53;99540.59;;;10.27;100.00
74524;BME280;63074;44.696;10.358;2022-11-20T16:44:19;99534.97;;;10.11;100.00
74524;BME280;63074;44.696;10.358;2022-11-20T16:46:48;99545.88;;;10.05;100.00
74524;BME280;63074;44.696;10.358;2022-11-20T16:49:17;99543.16;;;9.71;100.00
74524;BME280;63074;44.696;10.358;2022-11-20T16:51:46;99553.38;;;9.29;100.00
74524;BME280;63074;44.696;10.358;2022-11-20T16:54:13;99562.53;;;9.45;100.00
74524;BME280;63074;44.696;10.358;2022-11-20T16:56:42;99560.03;;;9.55;100.00
74524;BME280;63074;44.696;10.358;2022-11-20T16:59:11;99566.53;;;9.42;100.00
74524;BME280;63074;44.696;10.358;2022-11-20T17:01:38;99562.31;;;9.06;100.00
74524;BME280;63074;44.696;10.358;2022-11-20T17:04:12;99557.19;;;9.05;100.00
74524;BME280;63074;44.696;10.358;2022-11-20T17:06:42;99558.41;;;9.26;100.00
74524;BME280;63074;44.696;10.358;2022-11-20T17:09:17;99561.38;;;9.41;100.00
74524;BME280;63074;44.696;10.358;2022-11-20T17:11:43;99553.34;;;9.41;100.00
74524;BME280;63074;44.696;10.358;2022-11-20T17:14:12;99551.13;;;9.38;100.00
74524;BME280;63074;44.696;10.358;2022-11-20T17:16:39;99551.28;;;9.31;100.00
74524;BME280;63074;44.696;10.358;2022-11-20T17:19:05;99546.25;;;9.35;100.00
74524;BME280;63074;44.696;10.358;2022-11-20T17:21:35;99554.59;;;9.22;100.00
74524;BME280;63074;44.696;10.358;2022-11-20T17:24:07;99569.38;;;8.72;100.00
74524;BME280;63074;44.696;10.358;2022-11-20T17:26:38;99569.03;;;8.45;100.00
74524;BME280;63074;44.696;10.358;2022-11-20T17:29:14;99567.88;;;8.41;100.00
74524;BME280;63074;44.696;10.358;2022-11-20T17:31:53;99568.66;;;8.30;100.00
74524;BME280;63074;44.696;10.358;2022-11-20T17:34:20;99571.34;;;8.42;100.00
74524;BME280;63074;44.696;10.358;2022-11-20T17:36:49;99573.44;;;8.40;100.00
74524;BME280;63074;44.696;10.358;2022-11-20T17:39:18;99569.88;;;8.34;100.00
74524;BME280;63074;44.696;10.358;2022-11-20T17:41:45;99569.63;;;8.48;100.00
74524;BME280;63074;44.696;10.358;2022-11-20T17:44:31;99570.53;;;8.30;100.00